createdAt,value
2019-06-25T00:01:44.007Z,4.70
2019-06-25T00:04:15.936Z,4.67
2019-06-25T00:06:47.894Z,5.53
2019-06-25T00:09:19.837Z,5.10
2019-06-25T00:11:51.781Z,5.77
2019-06-25T00:14:23.725Z,5.37
2019-06-25T00:16:57.285Z,6.00
2019-06-25T00:19:29.586Z,5.87
2019-06-25T00:22:03.230Z,4.63
2019-06-25T00:24:35.305Z,4.40
2019-06-25T00:27:07.252Z,5.07
2019-06-25T00:29:39.197Z,4.20
2019-06-25T00:32:12.081Z,5.70
2019-06-25T00:34:44.630Z,5.80
2019-06-25T00:37:16.765Z,5.10
2019-06-25T00:39:48.798Z,5.60
2019-06-25T00:42:21.073Z,5.30
2019-06-25T00:44:53.197Z,5.43
2019-06-25T00:47:25.157Z,4.37
2019-06-25T00:49:57.409Z,4.93
2019-06-25T00:52:29.568Z,4.90
2019-06-25T00:55:01.533Z,5.03
2019-06-25T00:57:33.459Z,4.80
2019-06-25T01:00:13.107Z,5.23
2019-06-25T01:02:43.953Z,4.90
2019-06-25T01:05:16.154Z,4.73
2019-06-25T01:07:48.430Z,5.03
2019-06-25T01:10:20.633Z,5.23
2019-06-25T01:12:52.901Z,5.83
2019-06-25T01:15:26.074Z,4.87
2019-06-25T01:17:58.025Z,5.30
2019-06-25T01:20:29.973Z,5.70
2019-06-25T01:23:02.228Z,5.23
2019-06-25T01:25:34.353Z,5.57
2019-06-25T01:28:06.610Z,5.47
2019-06-25T01:30:38.748Z,4.53
2019-06-25T01:33:10.672Z,5.30
2019-06-25T01:35:42.641Z,5.13
2019-06-25T01:38:14.894Z,5.10
2019-06-25T01:40:47.036Z,4.90
2019-06-25T01:43:18.968Z,5.23
2019-06-25T01:45:50.922Z,5.23
2019-06-25T01:48:22.871Z,5.20
2019-06-25T01:50:56.821Z,4.40
2019-06-25T01:53:30.297Z,4.87
2019-06-25T01:56:02.769Z,4.87
2019-06-25T01:58:34.881Z,4.83
2019-06-25T02:01:08.356Z,4.90
2019-06-25T02:03:42.393Z,5.20
2019-06-25T02:06:15.605Z,5.00
2019-06-25T02:08:47.528Z,5.30
2019-06-25T02:11:19.486Z,5.80
2019-06-25T02:13:51.448Z,5.07
2019-06-25T02:16:23.417Z,4.93
2019-06-25T02:18:55.375Z,4.97
2019-06-25T02:21:27.324Z,5.67
2019-06-25T02:23:59.284Z,4.50
2019-06-25T02:26:31.249Z,5.33
2019-06-25T02:29:04.133Z,5.70
2019-06-25T02:31:37.469Z,5.13
2019-06-25T02:34:09.916Z,4.90
2019-06-25T02:36:42.053Z,5.67
2019-06-25T02:39:14.004Z,5.30
2019-06-25T02:41:45.976Z,5.60
2019-06-25T02:44:17.903Z,6.40
2019-06-25T02:46:50.936Z,5.70
2019-06-25T02:49:22.875Z,5.73
2019-06-25T02:51:54.844Z,5.90
2019-06-25T02:54:26.770Z,5.63
2019-06-25T02:57:00.014Z,5.60
2019-06-25T02:59:32.133Z,5.93
2019-06-25T03:02:04.111Z,5.30
2019-06-25T03:04:37.003Z,5.87
2019-06-25T03:07:09.300Z,5.23
2019-06-25T03:09:41.553Z,5.20
2019-06-25T03:12:14.081Z,5.53
2019-06-25T03:14:46.541Z,6.10
2019-06-25T03:17:19.961Z,5.33
2019-06-25T03:19:52.093Z,4.70
2019-06-25T03:22:24.033Z,6.50
2019-06-25T03:24:56.078Z,6.63
2019-06-25T03:27:28.957Z,6.07
2019-06-25T03:30:00.909Z,6.63
2019-06-25T03:32:32.854Z,6.03
2019-06-25T03:35:08.994Z,5.03
2019-06-25T03:37:42.878Z,6.27
2019-06-25T03:40:15.073Z,5.27
2019-06-25T03:42:47.034Z,5.57
2019-06-25T03:45:19.517Z,5.30
2019-06-25T03:47:52.953Z,5.50
2019-06-25T03:50:25.081Z,6.30
2019-06-25T03:52:58.033Z,5.33
2019-06-25T03:55:32.794Z,6.40
2019-06-25T03:58:04.726Z,5.60
2019-06-25T04:00:36.665Z,5.10
2019-06-25T04:03:09.761Z,5.10
2019-06-25T04:05:41.722Z,4.17
2019-06-25T04:08:14.592Z,4.93
2019-06-25T04:10:46.545Z,5.80
2019-06-25T04:13:18.501Z,5.53
2019-06-25T04:15:51.414Z,5.67
2019-06-25T04:18:23.793Z,5.60
2019-06-25T04:20:56.689Z,4.73
2019-06-25T04:23:29.043Z,5.30
2019-06-25T04:26:01.126Z,5.70
2019-06-25T04:28:33.061Z,5.00
2019-06-25T04:31:05.113Z,5.20
2019-06-25T04:33:37.365Z,6.00
2019-06-25T04:36:10.903Z,5.57
2019-06-25T04:38:45.030Z,4.97
2019-06-25T04:41:17.910Z,5.70
2019-06-25T04:43:49.870Z,4.47
2019-06-25T04:46:21.902Z,5.40
2019-06-25T04:48:54.894Z,4.37
2019-06-25T04:51:26.834Z,5.13
2019-06-25T04:53:58.769Z,5.50
2019-06-25T04:56:30.746Z,5.13
2019-06-25T04:59:02.673Z,5.27
2019-06-25T05:01:34.682Z,5.40
2019-06-25T05:04:06.592Z,5.13
2019-06-25T05:06:38.570Z,6.00
2019-06-25T05:09:10.565Z,4.33
2019-06-25T05:11:42.894Z,4.90
2019-06-25T05:14:15.685Z,5.70
2019-06-25T05:16:49.262Z,5.20
2019-06-25T05:19:21.199Z,4.70
2019-06-25T05:21:53.518Z,4.27
2019-06-25T05:24:25.449Z,4.80
2019-06-25T05:26:57.410Z,5.40
2019-06-25T05:29:29.452Z,5.30
2019-06-25T05:32:01.810Z,4.37
2019-06-25T05:34:34.019Z,4.53
2019-06-25T05:37:08.002Z,4.53
2019-06-25T05:39:40.257Z,3.90
2019-06-25T05:42:12.515Z,4.50
2019-06-25T05:44:45.088Z,4.60
2019-06-25T05:47:17.546Z,4.30
2019-06-25T05:49:49.906Z,4.73
2019-06-25T05:52:21.993Z,4.33
2019-06-25T05:54:54.370Z,3.97
2019-06-25T05:57:26.902Z,4.30
2019-06-25T06:00:02.582Z,3.97
2019-06-25T06:02:35.102Z,4.30
2019-06-25T06:05:10.318Z,3.97
2019-06-25T06:07:42.445Z,3.90
2019-06-25T06:10:15.018Z,4.53
2019-06-25T06:12:47.077Z,4.37
2019-06-25T06:15:20.330Z,3.80
2019-06-25T06:17:59.042Z,4.50
2019-06-25T06:20:40.530Z,3.77
2019-06-25T06:23:19.726Z,4.30
2019-06-25T06:25:53.202Z,4.03
2019-06-25T06:28:25.698Z,4.17
2019-06-25T06:30:57.815Z,4.17
2019-06-25T06:33:37.587Z,4.53
2019-06-25T06:36:10.046Z,3.73
2019-06-25T06:38:42.198Z,3.67
2019-06-25T06:41:14.118Z,4.37
2019-06-25T06:43:46.439Z,4.43
2019-06-25T06:46:18.809Z,4.20
2019-06-25T06:48:51.233Z,3.97
2019-06-25T06:51:23.323Z,3.30
2019-06-25T06:53:56.582Z,3.80
2019-06-25T06:56:28.943Z,4.20
2019-06-25T06:59:01.082Z,4.13
2019-06-25T07:01:33.092Z,3.70
2019-06-25T07:04:05.422Z,4.17
2019-06-25T07:06:38.895Z,3.73
2019-06-25T07:09:12.418Z,3.63
2019-06-25T07:11:45.859Z,3.43
2019-06-25T07:14:18.122Z,4.00
2019-06-25T07:16:50.087Z,4.23
2019-06-25T07:19:22.132Z,3.40
2019-06-25T07:21:54.079Z,3.40
2019-06-25T07:24:26.987Z,4.00
2019-06-25T07:26:59.235Z,3.77
2019-06-25T07:29:31.659Z,3.80
2019-06-25T07:32:03.829Z,4.10
2019-06-25T07:34:35.731Z,3.67
2019-06-25T07:37:08.658Z,3.53
2019-06-25T07:39:41.079Z,3.80
2019-06-25T07:42:14.003Z,4.23
2019-06-25T07:44:46.366Z,3.40
2019-06-25T07:47:18.659Z,3.53
2019-06-25T07:49:52.081Z,3.40
2019-06-25T07:52:24.216Z,3.43
2019-06-25T07:54:56.443Z,3.30
2019-06-25T07:57:28.995Z,3.90
2019-06-25T08:00:01.530Z,3.23
2019-06-25T08:02:35.385Z,4.20
2019-06-25T08:05:08.810Z,3.50
2019-06-25T08:07:42.434Z,3.47
2019-06-25T08:10:15.877Z,3.90
2019-06-25T08:12:49.107Z,3.50
2019-06-25T08:15:22.440Z,3.00
2019-06-25T08:17:54.902Z,3.20
2019-06-25T08:20:27.014Z,3.60
2019-06-25T08:23:01.278Z,3.30
2019-06-25T08:25:33.672Z,3.07
2019-06-25T08:28:07.039Z,3.07
2019-06-25T08:30:41.104Z,3.10
2019-06-25T08:33:13.363Z,3.30
2019-06-25T08:35:45.787Z,2.93
2019-06-25T08:38:18.315Z,3.13
2019-06-25T08:40:50.995Z,3.53
2019-06-25T08:43:24.147Z,3.10
2019-06-25T08:45:56.451Z,3.43
2019-06-25T08:48:28.880Z,2.90
2019-06-25T08:51:02.255Z,3.13
2019-06-25T08:53:34.687Z,3.90
2019-06-25T08:56:06.867Z,3.40
2019-06-25T08:58:39.583Z,3.03
2019-06-25T09:01:11.727Z,2.90
2019-06-25T09:03:43.707Z,3.17
2019-06-25T09:06:15.972Z,3.63
2019-06-25T09:08:48.274Z,2.73
2019-06-25T09:11:20.676Z,2.90
2019-06-25T09:13:54.336Z,3.20
2019-06-25T09:16:27.788Z,2.97
2019-06-25T09:19:05.952Z,3.30
2019-06-25T09:21:38.093Z,3.10
2019-06-25T09:24:10.017Z,2.77
2019-06-25T09:26:41.991Z,3.13
2019-06-25T09:29:14.960Z,3.00
2019-06-25T09:31:47.265Z,3.30
2019-06-25T09:34:19.379Z,3.47
2019-06-25T09:36:51.640Z,2.90
2019-06-25T09:39:23.767Z,2.83
2019-06-25T09:41:54.192Z,2.90
2019-06-25T09:44:30.314Z,3.27
2019-06-25T09:47:03.761Z,2.80
2019-06-25T09:49:37.267Z,2.70
2019-06-25T09:52:09.792Z,3.30
2019-06-25T09:54:41.900Z,2.80
2019-06-25T09:57:13.943Z,3.27
2019-06-25T09:59:46.040Z,2.67
2019-06-25T10:02:19.028Z,2.70
2019-06-25T10:04:54.315Z,2.60
2019-06-25T10:07:26.847Z,3.13
2019-06-25T10:10:00.187Z,2.87
2019-06-25T10:12:32.646Z,2.87
2019-06-25T10:15:08.346Z,2.30
2019-06-25T10:17:41.776Z,2.70
2019-06-25T10:20:14.297Z,2.50
2019-06-25T10:22:52.861Z,2.47
2019-06-25T10:25:23.016Z,2.63
2019-06-25T10:27:56.086Z,2.90
2019-06-25T10:30:51.629Z,2.57
2019-06-25T10:33:25.623Z,2.87
2019-06-25T10:35:58.043Z,2.50
2019-06-25T10:38:35.755Z,2.37
2019-06-25T10:41:08.296Z,2.23
2019-06-25T10:43:40.417Z,2.33
2019-06-25T10:46:12.659Z,2.40
2019-06-25T10:48:49.373Z,2.40
2019-06-25T10:51:21.807Z,2.10
2019-06-25T10:53:55.588Z,2.07
2019-06-25T10:56:31.063Z,2.13
2019-06-25T10:59:02.395Z,2.53
2019-06-25T11:01:37.354Z,2.50
2019-06-25T11:04:09.929Z,2.03
2019-06-25T11:06:58.778Z,2.23
2019-06-25T11:09:16.612Z,2.50
2019-06-25T11:11:49.655Z,2.67
2019-06-25T11:14:21.928Z,2.03
2019-06-25T11:16:54.368Z,2.50
2019-06-25T11:19:26.518Z,2.00
2019-06-25T11:21:58.765Z,2.27
2019-06-25T11:24:31.250Z,2.50
2019-06-25T11:27:03.729Z,2.43
2019-06-25T11:29:36.591Z,2.23
2019-06-25T11:32:09.667Z,2.20
2019-06-25T11:34:42.887Z,2.33
2019-06-25T11:37:15.038Z,2.00
2019-06-25T11:39:47.344Z,2.40
2019-06-25T11:42:19.643Z,2.70
2019-06-25T11:44:52.127Z,2.30
2019-06-25T11:47:24.633Z,2.83
2019-06-25T11:49:57.139Z,2.30
2019-06-25T11:52:29.668Z,2.40
2019-06-25T11:55:03.190Z,2.10
2019-06-25T11:57:36.282Z,1.80
2019-06-25T12:00:13.535Z,2.30
2019-06-25T12:02:48.741Z,2.33
2019-06-25T12:05:21.994Z,2.30
2019-06-25T12:07:55.371Z,2.17
2019-06-25T12:10:27.774Z,2.40
2019-06-25T12:12:59.711Z,2.27
2019-06-25T12:15:32.115Z,2.10
2019-06-25T12:18:04.439Z,2.40
2019-06-25T12:20:37.523Z,2.00
2019-06-25T12:23:09.782Z,2.17
2019-06-25T12:25:45.223Z,2.50
2019-06-25T12:28:17.332Z,1.83
2019-06-25T12:30:49.592Z,2.57
2019-06-25T12:33:21.735Z,2.33
2019-06-25T12:35:54.000Z,1.70
2019-06-25T12:38:26.109Z,2.20
2019-06-25T12:40:58.380Z,2.33
2019-06-25T12:43:30.507Z,2.10
2019-06-25T12:46:02.444Z,2.10
2019-06-25T12:48:34.575Z,2.30
2019-06-25T12:51:10.718Z,2.10
2019-06-25T12:53:41.843Z,2.87
2019-06-25T12:56:17.179Z,3.60
2019-06-25T12:58:53.409Z,1.70
2019-06-25T13:01:40.207Z,2.10
2019-06-25T13:04:00.769Z,2.33
2019-06-25T13:06:32.755Z,2.10
2019-06-25T13:09:08.057Z,1.80
2019-06-25T13:11:43.876Z,1.80
2019-06-25T13:14:16.043Z,1.90
2019-06-25T13:16:49.289Z,2.00
2019-06-25T13:19:22.972Z,1.83
2019-06-25T13:21:56.368Z,1.40
2019-06-25T13:24:30.780Z,1.60
2019-06-25T13:27:03.240Z,1.70
2019-06-25T13:29:35.378Z,1.90
2019-06-25T13:32:07.626Z,1.70
2019-06-25T13:34:42.520Z,1.90
2019-06-25T13:37:15.925Z,2.40
2019-06-25T13:39:51.588Z,2.20
2019-06-25T13:42:24.041Z,2.00
2019-06-25T13:45:02.292Z,2.00
2019-06-25T13:47:34.814Z,1.97
2019-06-25T13:50:11.680Z,2.10
2019-06-25T13:52:43.827Z,2.20
2019-06-25T13:55:16.549Z,1.80
2019-06-25T13:57:49.932Z,1.80
2019-06-25T14:00:22.887Z,1.50
2019-06-25T14:02:59.835Z,1.80
2019-06-25T14:05:30.039Z,1.30
2019-06-25T14:08:04.769Z,1.47
2019-06-25T14:10:38.268Z,1.70
2019-06-25T14:13:10.431Z,1.73
2019-06-25T14:15:42.631Z,1.90
2019-06-25T14:18:16.592Z,1.90
2019-06-25T14:20:48.524Z,1.90
2019-06-25T14:23:20.476Z,1.47
2019-06-25T14:26:06.170Z,1.50
2019-06-25T14:28:26.091Z,1.37
2019-06-25T14:30:59.058Z,1.70
2019-06-25T14:33:30.967Z,1.80
2019-06-25T14:36:02.913Z,1.90
2019-06-25T14:38:34.873Z,1.50
2019-06-25T14:41:09.700Z,1.20
2019-06-25T14:43:41.968Z,1.40
2019-06-25T14:46:15.056Z,1.50
2019-06-25T14:48:47.320Z,1.57
2019-06-25T14:51:19.757Z,1.60
2019-06-25T14:53:51.894Z,1.90
2019-06-25T14:56:25.057Z,1.60
2019-06-25T14:58:57.508Z,1.57
2019-06-25T15:01:29.653Z,1.63
2019-06-25T15:04:01.596Z,1.80
2019-06-25T15:06:33.548Z,1.70
2019-06-25T15:09:07.775Z,1.80
2019-06-25T15:11:40.036Z,1.50
2019-06-25T15:14:12.340Z,2.00
2019-06-25T15:16:45.029Z,1.73
2019-06-25T15:19:18.420Z,2.30
2019-06-25T15:21:54.104Z,2.30
2019-06-25T15:24:27.561Z,2.30
2019-06-25T15:27:03.024Z,2.07
2019-06-25T15:29:33.653Z,2.10
2019-06-25T15:32:05.848Z,1.80
2019-06-25T15:34:39.180Z,1.83
2019-06-25T15:37:13.656Z,1.97
2019-06-25T15:39:45.772Z,1.60
2019-06-25T15:42:17.862Z,1.80
2019-06-25T15:44:50.182Z,1.73
2019-06-25T15:47:26.847Z,1.93
2019-06-25T15:49:59.288Z,2.10
2019-06-25T15:52:32.411Z,1.80
2019-06-25T15:55:07.480Z,1.53
2019-06-25T15:57:39.671Z,1.70
2019-06-25T16:00:14.388Z,1.10
2019-06-25T16:02:46.552Z,1.60
2019-06-25T16:05:20.771Z,1.80
2019-06-25T16:07:52.901Z,1.50
2019-06-25T16:10:25.443Z,2.00
2019-06-25T16:12:57.576Z,1.60
2019-06-25T16:15:41.039Z,1.43
2019-06-25T16:18:03.829Z,1.30
2019-06-25T16:20:35.775Z,1.67
2019-06-25T16:23:07.753Z,1.40
2019-06-25T16:25:44.504Z,1.37
2019-06-25T16:28:16.777Z,1.70
2019-06-25T16:30:49.353Z,1.50
2019-06-25T16:33:21.284Z,1.73
2019-06-25T16:35:53.457Z,1.90
2019-06-25T16:38:31.012Z,1.30
2019-06-25T16:40:59.049Z,1.90
2019-06-25T16:43:31.013Z,2.70
2019-06-25T16:46:04.282Z,1.77
2019-06-25T16:48:36.441Z,2.30
2019-06-25T16:51:08.685Z,2.23
2019-06-25T16:53:46.784Z,2.47
2019-06-25T16:56:19.307Z,3.33
2019-06-25T16:58:51.446Z,2.77
2019-06-25T17:01:24.361Z,2.87
2019-06-25T17:03:56.625Z,2.77
2019-06-25T17:06:29.809Z,2.40
2019-06-25T17:09:02.709Z,3.27
2019-06-25T17:11:36.709Z,3.10
2019-06-25T17:14:11.140Z,2.53
2019-06-25T17:16:43.273Z,2.70
2019-06-25T17:19:16.509Z,2.53
2019-06-25T17:21:48.921Z,2.23
2019-06-25T17:24:21.177Z,2.53
2019-06-25T17:26:53.341Z,2.20
2019-06-25T17:29:27.521Z,2.40
2019-06-25T17:32:01.955Z,2.37
2019-06-25T17:34:34.393Z,2.20
2019-06-25T17:37:06.595Z,2.90
2019-06-25T17:39:50.423Z,2.13
2019-06-25T17:42:13.419Z,2.40
2019-06-25T17:44:45.373Z,2.20
2019-06-25T17:47:18.334Z,2.43
2019-06-25T17:49:50.590Z,2.60
2019-06-25T17:52:23.045Z,2.47
2019-06-25T17:54:57.174Z,2.70
2019-06-25T17:57:29.153Z,2.60
2019-06-25T18:00:01.079Z,2.77
2019-06-25T18:02:33.095Z,2.70
2019-06-25T18:05:07.960Z,3.03
2019-06-25T18:07:40.414Z,2.83
2019-06-25T18:10:13.701Z,2.73
2019-06-25T18:12:45.671Z,2.93
2019-06-25T18:15:18.634Z,3.00
2019-06-25T18:17:52.754Z,3.47
2019-06-25T18:20:24.758Z,2.97
2019-06-25T18:22:57.206Z,3.00
2019-06-25T18:25:29.658Z,3.97
2019-06-25T18:28:04.452Z,3.23
2019-06-25T18:30:36.694Z,3.37
2019-06-25T18:33:11.174Z,3.60
2019-06-25T18:35:45.568Z,3.10
2019-06-25T18:38:17.686Z,3.17
2019-06-25T18:40:50.589Z,3.80
2019-06-25T18:43:23.815Z,3.77
2019-06-25T18:45:55.959Z,4.10
2019-06-25T18:48:27.928Z,3.83
2019-06-25T18:50:59.854Z,3.47
2019-06-25T18:53:31.818Z,4.00
2019-06-25T18:56:03.769Z,3.70
2019-06-25T18:58:35.722Z,3.27
2019-06-25T19:01:07.655Z,3.33
2019-06-25T19:03:40.538Z,3.43
2019-06-25T19:06:12.480Z,3.40
2019-06-25T19:08:44.423Z,3.97
2019-06-25T19:11:16.362Z,3.63
2019-06-25T19:13:54.168Z,3.40
2019-06-25T19:16:26.457Z,3.67
2019-06-25T19:18:58.546Z,3.43
2019-06-25T19:21:30.878Z,3.40
2019-06-25T19:24:03.014Z,3.53
2019-06-25T19:26:35.262Z,4.00
2019-06-25T19:29:07.715Z,3.50
2019-06-25T19:31:40.156Z,3.40
2019-06-25T19:34:12.305Z,4.13
2019-06-25T19:36:44.562Z,3.87
2019-06-25T19:39:17.313Z,3.30
2019-06-25T19:41:50.466Z,3.40
2019-06-25T19:44:22.703Z,3.73
2019-06-25T19:46:57.066Z,3.77
2019-06-25T19:49:29.362Z,3.73
2019-06-25T19:52:01.300Z,3.63
2019-06-25T19:54:33.250Z,3.53
2019-06-25T19:57:05.202Z,3.70
2019-06-25T19:59:37.151Z,3.90
2019-06-25T20:02:14.306Z,3.57
2019-06-25T20:04:46.821Z,4.33
2019-06-25T20:07:19.084Z,4.00
2019-06-25T20:09:51.225Z,4.53
2019-06-25T20:12:23.181Z,4.67
2019-06-25T20:14:55.138Z,4.53
2019-06-25T20:17:27.093Z,3.83
2019-06-25T20:19:59.350Z,4.63
2019-06-25T20:22:31.473Z,4.97
2019-06-25T20:25:04.361Z,4.63
2019-06-25T20:27:36.293Z,4.43
2019-06-25T20:30:09.254Z,4.30
2019-06-25T20:32:41.194Z,4.03
2019-06-25T20:35:13.333Z,4.10
2019-06-25T20:37:45.271Z,3.83
2019-06-25T20:40:17.610Z,3.20
2019-06-25T20:42:49.545Z,4.20
2019-06-25T20:45:21.583Z,3.60
2019-06-25T20:47:53.535Z,3.67
2019-06-25T20:50:25.613Z,3.93
2019-06-25T20:52:57.553Z,5.10
2019-06-25T20:55:29.507Z,4.00
2019-06-25T20:58:01.485Z,4.37
2019-06-25T21:00:33.446Z,4.30
2019-06-25T21:03:05.749Z,3.90
2019-06-25T21:05:37.694Z,4.30
2019-06-25T21:08:09.629Z,4.40
2019-06-25T21:10:41.669Z,4.67
2019-06-25T21:13:13.677Z,5.27
2019-06-25T21:15:45.658Z,5.23
2019-06-25T21:18:17.577Z,4.90
2019-06-25T21:20:49.798Z,5.00
2019-06-25T21:23:22.708Z,5.13
2019-06-25T21:25:54.970Z,5.33
2019-06-25T21:28:28.193Z,5.00
2019-06-25T21:31:00.651Z,5.47
2019-06-25T21:33:33.706Z,5.83
2019-06-25T21:36:05.676Z,5.40
2019-06-25T21:38:37.595Z,4.93
2019-06-25T21:41:09.608Z,5.37
2019-06-25T21:43:41.533Z,5.43
2019-06-25T21:46:13.522Z,4.33
2019-06-25T21:48:45.438Z,5.80
2019-06-25T21:51:17.913Z,4.23
2019-06-25T21:53:49.849Z,4.97
2019-06-25T21:56:22.142Z,5.67
2019-06-25T21:58:54.350Z,4.73
2019-06-25T22:01:30.390Z,6.10
2019-06-25T22:04:03.983Z,5.47
2019-06-25T22:06:36.137Z,6.03
2019-06-25T22:09:10.696Z,5.30
2019-06-25T22:11:43.330Z,5.90
2019-06-25T22:14:16.714Z,5.80
2019-06-25T22:16:48.679Z,5.90
2019-06-25T22:19:22.382Z,5.50
2019-06-25T22:21:54.330Z,5.63
2019-06-25T22:24:26.646Z,5.70
2019-06-25T22:26:59.875Z,5.90
2019-06-25T22:29:31.801Z,5.77
2019-06-25T22:32:04.064Z,6.00
2019-06-25T22:34:36.658Z,6.43
2019-06-25T22:37:09.916Z,5.83
2019-06-25T22:39:45.783Z,6.47
2019-06-25T22:42:16.802Z,6.30
2019-06-25T22:44:48.919Z,5.90
2019-06-25T22:47:20.903Z,6.23
2019-06-25T22:49:52.833Z,6.30
2019-06-25T22:52:24.769Z,5.30
2019-06-25T22:54:57.031Z,6.07
2019-06-25T22:57:29.161Z,5.27
2019-06-25T23:00:01.176Z,6.40
2019-06-25T23:02:33.249Z,5.97
2019-06-25T23:05:07.634Z,5.90
2019-06-25T23:07:39.570Z,5.63
2019-06-25T23:10:12.625Z,6.10
2019-06-25T23:12:53.972Z,6.13
2019-06-25T23:15:18.556Z,6.30
2019-06-25T23:17:50.510Z,5.73
2019-06-25T23:20:22.602Z,5.63
2019-06-25T23:22:54.543Z,6.67
2019-06-25T23:25:26.486Z,7.03
2019-06-25T23:27:58.453Z,7.07
2019-06-25T23:30:30.488Z,6.30
2019-06-25T23:33:02.730Z,6.40
2019-06-25T23:35:35.206Z,6.13
2019-06-25T23:38:07.682Z,6.90
2019-06-25T23:40:39.611Z,6.20
2019-06-25T23:43:11.562Z,6.30
2019-06-25T23:45:44.467Z,7.67
2019-06-25T23:48:16.810Z,6.63
2019-06-25T23:50:48.762Z,5.30
2019-06-25T23:53:21.663Z,6.60
2019-06-25T23:55:53.722Z,5.93
2019-06-25T23:58:25.735Z,7.03
